createdAt,value
2022-10-14T00:03:23.795Z,92.08
2022-10-14T00:08:55.621Z,92.07
2022-10-14T00:14:27.277Z,92.42
2022-10-14T00:19:59.038Z,92.32
2022-10-14T00:31:00.779Z,92.58
2022-10-14T00:36:32.520Z,92.24
2022-10-14T00:42:04.603Z,92.35
2022-10-14T00:47:36.706Z,92.11
2022-10-14T00:53:08.497Z,92.12
2022-10-14T00:58:40.631Z,91.78
2022-10-14T01:04:12.469Z,91.77
2022-10-14T01:09:44.517Z,92.11
2022-10-14T01:15:16.293Z,92.34
2022-10-14T01:20:48.383Z,92.88
2022-10-14T01:26:20.227Z,93.03
2022-10-14T01:31:52.346Z,93.06
2022-10-14T01:37:24.384Z,92.73
2022-10-14T01:42:56.106Z,92.50
2022-10-14T01:48:27.835Z,92.72
2022-10-14T01:54:01.463Z,92.69
2022-10-14T01:59:33.550Z,93.23
2022-10-14T02:05:05.287Z,93.09
2022-10-14T02:10:37.084Z,93.19
2022-10-14T02:16:09.284Z,93.45
2022-10-14T02:21:41.555Z,93.52
2022-10-14T02:27:15.643Z,93.14
2022-10-14T02:32:47.525Z,93.04
2022-10-14T02:40:41.857Z,93.27
2022-10-14T02:46:13.380Z,93.52
2022-10-14T02:51:45.654Z,93.28
2022-10-14T02:57:17.600Z,93.11
2022-10-14T03:08:18.978Z,93.35
2022-10-14T03:13:50.821Z,93.36
2022-10-14T03:19:22.608Z,93.61
2022-10-14T03:24:54.378Z,93.52
2022-10-14T03:30:26.210Z,93.16
2022-10-14T03:38:18.677Z,92.93
2022-10-14T03:43:50.339Z,92.94
2022-10-14T03:49:22.036Z,92.82
2022-10-14T03:54:54.117Z,92.65
2022-10-14T04:00:25.817Z,92.82
2022-10-14T04:11:27.307Z,92.92
2022-10-14T04:16:59.206Z,92.84
2022-10-14T04:22:30.867Z,92.68
2022-10-14T04:28:02.745Z,92.53
2022-10-14T04:33:34.550Z,93.09
2022-10-14T04:39:06.280Z,93.03
2022-10-14T04:44:37.992Z,93.28
2022-10-14T04:50:10.211Z,93.37
2022-10-14T04:55:42.449Z,93.35
2022-10-14T05:01:14.507Z,92.83
2022-10-14T05:06:46.127Z,93.01
2022-10-14T05:12:18.066Z,92.89
2022-10-14T05:17:49.849Z,92.74
2022-10-14T05:23:21.552Z,93.08
2022-10-14T05:28:53.370Z,92.99
2022-10-14T05:34:25.028Z,92.81
2022-10-14T05:39:56.916Z,92.58
2022-10-14T05:45:28.650Z,92.36
2022-10-14T05:51:00.095Z,92.16
2022-10-14T05:56:32.458Z,92.03
2022-10-14T06:02:04.430Z,92.09
2022-10-14T06:07:36.242Z,92.34
2022-10-14T06:13:08.044Z,91.94
2022-10-14T06:18:39.639Z,91.93
2022-10-14T06:24:11.355Z,92.02
2022-10-14T06:29:43.059Z,92.02
2022-10-14T06:35:15.001Z,91.70
2022-10-14T06:40:46.795Z,91.44
2022-10-14T06:46:18.387Z,91.14
2022-10-14T06:51:49.905Z,91.05
2022-10-14T06:57:21.612Z,90.68
2022-10-14T07:02:53.537Z,90.00
2022-10-14T07:13:54.593Z,89.95
2022-10-14T07:19:26.195Z,89.44
2022-10-14T07:24:57.961Z,88.12
2022-10-14T07:30:30.081Z,83.19
2022-10-14T07:36:01.661Z,84.90
2022-10-14T07:41:33.216Z,83.87
2022-10-14T07:52:36.707Z,75.44
2022-10-14T07:58:08.666Z,70.00
2022-10-14T08:03:40.639Z,68.03
2022-10-14T08:14:44.410Z,63.78
2022-10-14T08:20:16.269Z,62.93
2022-10-14T08:31:17.525Z,61.90
2022-10-14T08:36:49.435Z,65.05
2022-10-14T08:42:21.874Z,59.44
2022-10-14T08:47:53.458Z,58.29
2022-10-14T08:53:25.463Z,60.65
2022-10-14T08:58:57.050Z,60.78
2022-10-14T09:04:28.703Z,59.84
2022-10-14T09:10:00.890Z,59.25
2022-10-14T09:21:04.037Z,60.42
2022-10-14T09:26:35.540Z,59.09
2022-10-14T09:32:07.546Z,60.37
2022-10-14T09:37:39.315Z,60.83
2022-10-14T09:43:11.386Z,59.38
2022-10-14T09:48:43.510Z,59.49
2022-10-14T09:54:15.803Z,58.54
2022-10-14T09:59:47.439Z,59.40
2022-10-14T10:05:19.190Z,59.53
2022-10-14T10:10:51.127Z,59.53
2022-10-14T10:16:22.744Z,58.51
2022-10-14T10:21:54.566Z,58.67
2022-10-14T10:27:26.536Z,56.61
2022-10-14T10:32:58.468Z,55.93
2022-10-14T10:38:30.638Z,56.80
2022-10-14T10:44:02.289Z,55.92
2022-10-14T10:49:39.917Z,56.77
2022-10-14T10:55:11.853Z,57.34
2022-10-14T11:00:43.996Z,55.66
2022-10-14T11:06:15.776Z,57.47
2022-10-14T11:11:47.501Z,57.06
2022-10-14T11:22:48.903Z,55.53
2022-10-14T11:28:26.640Z,56.49
2022-10-14T11:33:58.394Z,55.48
2022-10-14T11:39:31.985Z,56.23
2022-10-14T11:45:02.231Z,56.65
2022-10-14T11:50:34.072Z,56.06
2022-10-14T11:56:05.958Z,54.85
2022-10-14T12:01:38.316Z,55.87
2022-10-14T12:07:09.635Z,54.39
2022-10-14T12:12:41.605Z,54.16
2022-10-14T12:18:13.074Z,53.53
2022-10-14T12:23:45.014Z,54.44
2022-10-14T12:29:16.945Z,55.33
2022-10-14T12:34:48.785Z,54.79
2022-10-14T12:40:20.573Z,55.49
2022-10-14T12:45:52.138Z,55.42
2022-10-14T12:51:23.908Z,56.04
2022-10-14T12:56:55.677Z,56.24
2022-10-14T13:02:27.504Z,56.72
2022-10-14T13:07:59.369Z,56.25
2022-10-14T13:13:30.802Z,56.81
2022-10-14T13:19:02.798Z,56.59
2022-10-14T13:24:34.675Z,57.22
2022-10-14T13:30:06.251Z,57.35
2022-10-14T13:41:07.722Z,58.53
2022-10-14T13:46:39.722Z,58.77
2022-10-14T13:52:11.755Z,59.67
2022-10-14T13:58:10.925Z,60.73
2022-10-14T14:03:15.946Z,63.99
2022-10-14T14:08:47.711Z,70.82
2022-10-14T14:14:19.401Z,74.77
2022-10-14T14:19:51.774Z,78.21
2022-10-14T14:25:34.139Z,80.63
2022-10-14T14:30:55.459Z,81.29
2022-10-14T14:36:39.822Z,80.98
2022-10-14T14:41:59.276Z,81.88
2022-10-14T14:47:31.222Z,81.61
2022-10-14T14:53:03.314Z,81.40
2022-10-14T14:58:41.905Z,82.43
2022-10-14T15:04:14.645Z,81.21
2022-10-14T15:09:47.215Z,81.60
2022-10-14T15:20:48.834Z,81.48
2022-10-14T15:26:20.753Z,82.60
2022-10-14T15:31:54.951Z,82.61
2022-10-14T15:37:26.708Z,83.05
2022-10-14T15:42:58.893Z,82.82
2022-10-14T15:48:30.797Z,83.46
2022-10-14T15:54:02.734Z,84.06
2022-10-14T15:59:35.611Z,84.53
2022-10-14T16:05:19.194Z,84.75
2022-10-14T16:10:39.263Z,85.39
2022-10-14T16:16:11.276Z,85.27
2022-10-14T16:21:43.042Z,85.37
2022-10-14T16:27:14.936Z,85.18
2022-10-14T16:32:46.685Z,85.14
2022-10-14T16:38:18.408Z,84.88
2022-10-14T16:43:50.241Z,85.06
2022-10-14T16:49:22.257Z,85.34
2022-10-14T16:51:34.304Z,84.91
2022-10-14T16:57:06.160Z,85.66
2022-10-14T17:02:37.866Z,85.78
2022-10-14T17:08:09.649Z,85.50
2022-10-14T17:13:41.606Z,85.35
2022-10-14T17:19:13.192Z,85.40
2022-10-14T17:24:47.347Z,85.57
2022-10-14T17:30:19.210Z,85.54
2022-10-14T17:35:50.708Z,85.53
2022-10-14T17:41:22.827Z,86.04
2022-10-14T17:52:24.285Z,86.14
2022-10-14T17:57:55.871Z,86.09
2022-10-14T18:03:27.582Z,86.39
2022-10-14T18:08:59.505Z,86.61
2022-10-14T18:14:31.645Z,86.56
2022-10-14T18:22:24.234Z,85.95
2022-10-14T18:33:26.068Z,86.70
2022-10-14T18:38:57.605Z,87.07
2022-10-14T18:44:29.483Z,86.84
2022-10-14T19:01:02.590Z,86.91
2022-10-14T19:06:34.079Z,86.96
2022-10-14T19:12:08.103Z,87.01
2022-10-14T19:17:40.075Z,87.12
2022-10-14T19:23:11.607Z,86.81
2022-10-14T19:28:43.732Z,86.61
2022-10-14T19:34:15.278Z,86.61
2022-10-14T19:39:47.135Z,86.47
2022-10-14T19:45:18.738Z,86.47
2022-10-14T19:50:50.678Z,86.43
2022-10-14T19:56:22.646Z,86.06
2022-10-14T20:12:55.400Z,86.37
2022-10-14T20:18:28.273Z,86.33
2022-10-14T20:23:59.705Z,86.31
2022-10-14T20:29:31.523Z,86.58
2022-10-14T20:35:03.328Z,86.49
2022-10-14T20:40:34.924Z,86.29
2022-10-14T20:46:06.866Z,86.37
2022-10-14T20:51:38.598Z,84.83
2022-10-14T20:57:10.587Z,85.99
2022-10-14T21:08:14.118Z,86.79
2022-10-14T21:13:45.897Z,86.35
2022-10-14T21:19:17.910Z,87.06
2022-10-14T21:24:49.616Z,87.34
2022-10-14T21:30:21.037Z,87.56
2022-10-14T21:35:52.816Z,86.96
2022-10-14T21:41:25.039Z,87.19
2022-10-14T21:46:56.917Z,86.99
2022-10-14T21:52:28.659Z,86.69
2022-10-14T21:58:00.590Z,86.98
2022-10-14T22:03:31.921Z,86.61
2022-10-14T22:09:04.078Z,86.87
2022-10-14T22:14:35.705Z,87.06
2022-10-14T22:20:07.787Z,86.68
2022-10-14T22:25:40.014Z,87.15
2022-10-14T22:31:11.677Z,87.13
2022-10-14T22:36:43.672Z,88.37
2022-10-14T22:42:15.546Z,88.59
2022-10-14T22:47:47.210Z,88.84
2022-10-14T22:58:49.132Z,89.39
2022-10-14T23:04:20.826Z,87.77
2022-10-14T23:09:52.809Z,89.10
2022-10-14T23:15:24.422Z,89.71
2022-10-14T23:20:56.238Z,89.72
2022-10-14T23:26:27.821Z,89.38
2022-10-14T23:31:59.903Z,87.46
2022-10-14T23:37:31.568Z,87.17
2022-10-14T23:43:03.368Z,87.09
2022-10-14T23:48:35.435Z,87.53
2022-10-14T23:54:07.161Z,89.77
2022-10-14T23:59:38.911Z,88.97
